sensor_id;sensor_type;location;lat;lon;timestamp;temperature;humidity
25933;DHT22;13731;51.166;4.474;2024-01-25T00:01:08;9.90;1.00
25933;DHT22;13731;51.166;4.474;2024-01-25T00:03:34;9.90;1.00
25933;DHT22;13731;51.166;4.474;2024-01-25T00:05:59;9.70;1.00
25933;DHT22;13731;51.166;4.474;2024-01-25T00:08:25;9.60;99.90
25933;DHT22;13731;51.166;4.474;2024-01-25T00:10:51;9.60;1.00
25933;DHT22;13731;51.166;4.474;2024-01-25T00:13:17;9.60;1.00
25933;DHT22;13731;51.166;4.474;2024-01-25T00:15:42;9.50;26.80
25933;DHT22;13731;51.166;4.474;2024-01-25T00:18:08;9.50;99.90
25933;DHT22;13731;51.166;4.474;2024-01-25T00:20:34;9.40;1.00
25933;DHT22;13731;51.166;4.474;2024-01-25T00:23:00;9.40;1.00
25933;DHT22;13731;51.166;4.474;2024-01-25T00:25:25;9.20;99.90
25933;DHT22;13731;51.166;4.474;2024-01-25T00:27:52;9.20;99.90
25933;DHT22;13731;51.166;4.474;2024-01-25T00:30:17;9.10;1.00
25933;DHT22;13731;51.166;4.474;2024-01-25T00:32:43;9.20;99.90
25933;DHT22;13731;51.166;4.474;2024-01-25T00:35:09;9.10;99.90
25933;DHT22;13731;51.166;4.474;2024-01-25T00:37:38;9.20;99.90
25933;DHT22;13731;51.166;4.474;2024-01-25T00:40:04;9.20;99.90
25933;DHT22;13731;51.166;4.474;2024-01-25T00:42:30;9.10;99.90
25933;DHT22;13731;51.166;4.474;2024-01-25T00:44:56;9.00;1.90
25933;DHT22;13731;51.166;4.474;2024-01-25T00:47:22;9.00;99.90
25933;DHT22;13731;51.166;4.474;2024-01-25T00:49:48;9.00;99.90
25933;DHT22;13731;51.166;4.474;2024-01-25T00:52:14;9.00;99.90
25933;DHT22;13731;51.166;4.474;2024-01-25T00:54:40;8.90;99.90
25933;DHT22;13731;51.166;4.474;2024-01-25T00:57:07;8.70;1.00
25933;DHT22;13731;51.166;4.474;2024-01-25T00:59:32;8.70;1.00
25933;DHT22;13731;51.166;4.474;2024-01-25T01:01:58;8.70;99.90
25933;DHT22;13731;51.166;4.474;2024-01-25T01:04:25;8.70;99.90
25933;DHT22;13731;51.166;4.474;2024-01-25T01:06:51;8.60;1.00
25933;DHT22;13731;51.166;4.474;2024-01-25T01:09:17;8.60;99.90
25933;DHT22;13731;51.166;4.474;2024-01-25T01:11:43;8.60;1.00
25933;DHT22;13731;51.166;4.474;2024-01-25T01:14:09;8.60;99.90
25933;DHT22;13731;51.166;4.474;2024-01-25T01:16:35;8.50;99.90
25933;DHT22;13731;51.166;4.474;2024-01-25T01:19:01;8.50;99.90
25933;DHT22;13731;51.166;4.474;2024-01-25T01:21:32;8.50;99.90
25933;DHT22;13731;51.166;4.474;2024-01-25T01:23:58;8.40;1.00
25933;DHT22;13731;51.166;4.474;2024-01-25T01:26:24;8.30;1.00
25933;DHT22;13731;51.166;4.474;2024-01-25T01:28:50;8.40;1.00
25933;DHT22;13731;51.166;4.474;2024-01-25T01:31:15;8.40;1.00
25933;DHT22;13731;51.166;4.474;2024-01-25T01:33:41;8.30;99.70
25933;DHT22;13731;51.166;4.474;2024-01-25T01:36:07;8.30;99.90
25933;DHT22;13731;51.166;4.474;2024-01-25T01:38:33;8.40;99.90
25933;DHT22;13731;51.166;4.474;2024-01-25T01:40:58;8.30;99.90
25933;DHT22;13731;51.166;4.474;2024-01-25T01:43:24;8.20;1.00
25933;DHT22;13731;51.166;4.474;2024-01-25T01:45:50;8.10;99.90
25933;DHT22;13731;51.166;4.474;2024-01-25T01:48:18;8.00;1.00
25933;DHT22;13731;51.166;4.474;2024-01-25T01:50:44;8.00;1.00
25933;DHT22;13731;51.166;4.474;2024-01-25T01:53:10;7.90;1.00
25933;DHT22;13731;51.166;4.474;2024-01-25T01:55:37;7.90;65.40
25933;DHT22;13731;51.166;4.474;2024-01-25T01:58:03;7.80;93.30
25933;DHT22;13731;51.166;4.474;2024-01-25T02:00:30;7.80;99.90
25933;DHT22;13731;51.166;4.474;2024-01-25T02:02:59;7.70;82.10
25933;DHT22;13731;51.166;4.474;2024-01-25T02:05:25;7.70;1.00
25933;DHT22;13731;51.166;4.474;2024-01-25T02:07:50;7.70;59.90
25933;DHT22;13731;51.166;4.474;2024-01-25T02:10:18;7.70;1.00
25933;DHT22;13731;51.166;4.474;2024-01-25T02:12:43;7.70;99.90
25933;DHT22;13731;51.166;4.474;2024-01-25T02:15:09;7.70;1.00
25933;DHT22;13731;51.166;4.474;2024-01-25T02:17:35;7.70;20.80
25933;DHT22;13731;51.166;4.474;2024-01-25T02:20:01;7.70;99.90
25933;DHT22;13731;51.166;4.474;2024-01-25T02:22:28;7.60;1.00
25933;DHT22;13731;51.166;4.474;2024-01-25T02:24:54;7.50;1.00
25933;DHT22;13731;51.166;4.474;2024-01-25T02:27:20;7.50;1.00
25933;DHT22;13731;51.166;4.474;2024-01-25T02:29:46;7.40;99.50
25933;DHT22;13731;51.166;4.474;2024-01-25T02:32:11;7.40;99.90
25933;DHT22;13731;51.166;4.474;2024-01-25T02:34:37;7.40;99.90
25933;DHT22;13731;51.166;4.474;2024-01-25T02:37:03;7.30;99.90
25933;DHT22;13731;51.166;4.474;2024-01-25T02:39:29;7.30;1.00
25933;DHT22;13731;51.166;4.474;2024-01-25T02:41:54;7.30;1.00
25933;DHT22;13731;51.166;4.474;2024-01-25T02:44:20;7.20;1.00
25933;DHT22;13731;51.166;4.474;2024-01-25T02:46:46;7.30;1.00
25933;DHT22;13731;51.166;4.474;2024-01-25T02:49:12;7.20;1.00
25933;DHT22;13731;51.166;4.474;2024-01-25T02:51:38;7.20;99.90
25933;DHT22;13731;51.166;4.474;2024-01-25T02:54:04;7.20;1.00
25933;DHT22;13731;51.166;4.474;2024-01-25T02:56:29;7.10;1.00
25933;DHT22;13731;51.166;4.474;2024-01-25T02:59:02;7.10;1.00
25933;DHT22;13731;51.166;4.474;2024-01-25T03:01:28;7.00;1.00
25933;DHT22;13731;51.166;4.474;2024-01-25T03:04:02;7.00;1.00
25933;DHT22;13731;51.166;4.474;2024-01-25T03:06:28;7.00;1.00
25933;DHT22;13731;51.166;4.474;2024-01-25T03:08:53;7.00;99.90
25933;DHT22;13731;51.166;4.474;2024-01-25T03:11:19;6.90;99.90
25933;DHT22;13731;51.166;4.474;2024-01-25T03:13:45;6.90;99.90
25933;DHT22;13731;51.166;4.474;2024-01-25T03:16:11;6.90;99.90
25933;DHT22;13731;51.166;4.474;2024-01-25T03:18:37;6.90;99.90
25933;DHT22;13731;51.166;4.474;2024-01-25T03:21:02;7.00;99.90
25933;DHT22;13731;51.166;4.474;2024-01-25T03:23:28;6.90;99.90
25933;DHT22;13731;51.166;4.474;2024-01-25T03:25:54;6.80;1.00
25933;DHT22;13731;51.166;4.474;2024-01-25T03:28:20;6.80;7.80
25933;DHT22;13731;51.166;4.474;2024-01-25T03:30:45;6.80;1.00
25933;DHT22;13731;51.166;4.474;2024-01-25T03:33:11;6.70;99.90
25933;DHT22;13731;51.166;4.474;2024-01-25T03:35:37;6.60;99.90
25933;DHT22;13731;51.166;4.474;2024-01-25T03:38:02;6.50;1.00
25933;DHT22;13731;51.166;4.474;2024-01-25T03:40:28;6.40;20.00
25933;DHT22;13731;51.166;4.474;2024-01-25T03:42:54;6.30;1.00
25933;DHT22;13731;51.166;4.474;2024-01-25T03:45:20;6.20;90.80
25933;DHT22;13731;51.166;4.474;2024-01-25T03:47:45;6.10;1.00
25933;DHT22;13731;51.166;4.474;2024-01-25T03:50:11;6.00;99.90
25933;DHT22;13731;51.166;4.474;2024-01-25T03:52:37;5.90;99.90
25933;DHT22;13731;51.166;4.474;2024-01-25T03:55:05;5.90;1.00
25933;DHT22;13731;51.166;4.474;2024-01-25T03:57:31;5.80;1.00
25933;DHT22;13731;51.166;4.474;2024-01-25T03:59:57;5.70;1.00
25933;DHT22;13731;51.166;4.474;2024-01-25T04:02:23;5.60;26.90
25933;DHT22;13731;51.166;4.474;2024-01-25T04:04:48;5.60;99.90
25933;DHT22;13731;51.166;4.474;2024-01-25T04:07:15;5.50;1.00
25933;DHT22;13731;51.166;4.474;2024-01-25T04:09:41;5.40;1.00
25933;DHT22;13731;51.166;4.474;2024-01-25T04:12:07;5.40;1.00
25933;DHT22;13731;51.166;4.474;2024-01-25T04:14:33;5.40;1.00
25933;DHT22;13731;51.166;4.474;2024-01-25T04:16:59;5.30;1.00
25933;DHT22;13731;51.166;4.474;2024-01-25T04:19:24;5.40;1.00
25933;DHT22;13731;51.166;4.474;2024-01-25T04:21:50;5.30;1.00
25933;DHT22;13731;51.166;4.474;2024-01-25T04:24:16;5.30;1.00
25933;DHT22;13731;51.166;4.474;2024-01-25T04:26:42;5.30;1.00
25933;DHT22;13731;51.166;4.474;2024-01-25T04:29:08;5.20;1.00
25933;DHT22;13731;51.166;4.474;2024-01-25T04:31:34;5.20;1.00
25933;DHT22;13731;51.166;4.474;2024-01-25T04:33:59;5.20;1.00
25933;DHT22;13731;51.166;4.474;2024-01-25T04:36:25;5.10;92.50
25933;DHT22;13731;51.166;4.474;2024-01-25T04:38:51;5.10;99.90
25933;DHT22;13731;51.166;4.474;2024-01-25T04:41:17;5.10;99.90
25933;DHT22;13731;51.166;4.474;2024-01-25T04:43:43;5.10;99.90
25933;DHT22;13731;51.166;4.474;2024-01-25T04:46:09;5.00;96.50
25933;DHT22;13731;51.166;4.474;2024-01-25T04:48:35;5.00;99.90
25933;DHT22;13731;51.166;4.474;2024-01-25T04:51:00;5.10;99.90
25933;DHT22;13731;51.166;4.474;2024-01-25T04:53:26;5.00;99.90
25933;DHT22;13731;51.166;4.474;2024-01-25T04:55:55;5.00;99.90
25933;DHT22;13731;51.166;4.474;2024-01-25T04:58:22;5.00;99.90
25933;DHT22;13731;51.166;4.474;2024-01-25T05:00:48;4.90;99.90
25933;DHT22;13731;51.166;4.474;2024-01-25T05:03:15;4.90;99.90
25933;DHT22;13731;51.166;4.474;2024-01-25T05:05:41;4.80;99.90
25933;DHT22;13731;51.166;4.474;2024-01-25T05:08:07;4.80;99.90
25933;DHT22;13731;51.166;4.474;2024-01-25T05:10:33;4.80;99.90
25933;DHT22;13731;51.166;4.474;2024-01-25T05:12:58;4.70;99.90
25933;DHT22;13731;51.166;4.474;2024-01-25T05:15:24;4.70;99.90
25933;DHT22;13731;51.166;4.474;2024-01-25T05:17:50;4.70;99.90
25933;DHT22;13731;51.166;4.474;2024-01-25T05:20:16;4.60;99.90
25933;DHT22;13731;51.166;4.474;2024-01-25T05:22:43;4.60;99.90
25933;DHT22;13731;51.166;4.474;2024-01-25T05:25:09;4.60;99.90
25933;DHT22;13731;51.166;4.474;2024-01-25T05:27:35;4.60;99.90
25933;DHT22;13731;51.166;4.474;2024-01-25T05:30:01;4.50;99.90
25933;DHT22;13731;51.166;4.474;2024-01-25T05:32:26;4.50;99.90
25933;DHT22;13731;51.166;4.474;2024-01-25T05:34:52;4.50;99.90
25933;DHT22;13731;51.166;4.474;2024-01-25T05:37:18;4.40;99.90
25933;DHT22;13731;51.166;4.474;2024-01-25T05:39:44;4.40;99.90
25933;DHT22;13731;51.166;4.474;2024-01-25T05:42:10;4.40;99.90
25933;DHT22;13731;51.166;4.474;2024-01-25T05:44:36;4.30;99.90
25933;DHT22;13731;51.166;4.474;2024-01-25T05:47:02;4.30;99.90
25933;DHT22;13731;51.166;4.474;2024-01-25T05:49:27;4.30;99.90
25933;DHT22;13731;51.166;4.474;2024-01-25T05:51:53;4.30;99.90
25933;DHT22;13731;51.166;4.474;2024-01-25T05:54:19;4.30;99.90
25933;DHT22;13731;51.166;4.474;2024-01-25T05:56:45;4.30;99.90
25933;DHT22;13731;51.166;4.474;2024-01-25T05:59:10;4.40;99.90
25933;DHT22;13731;51.166;4.474;2024-01-25T06:01:36;4.40;99.90
25933;DHT22;13731;51.166;4.474;2024-01-25T06:04:02;4.30;99.90
25933;DHT22;13731;51.166;4.474;2024-01-25T06:06:28;4.30;99.90
25933;DHT22;13731;51.166;4.474;2024-01-25T06:08:54;4.40;99.90
25933;DHT22;13731;51.166;4.474;2024-01-25T06:11:20;4.40;99.90
25933;DHT22;13731;51.166;4.474;2024-01-25T06:13:45;4.40;99.90
25933;DHT22;13731;51.166;4.474;2024-01-25T06:16:11;4.50;99.90
25933;DHT22;13731;51.166;4.474;2024-01-25T06:18:37;4.70;99.90
25933;DHT22;13731;51.166;4.474;2024-01-25T06:21:02;4.80;99.90
25933;DHT22;13731;51.166;4.474;2024-01-25T06:23:28;5.00;99.90
25933;DHT22;13731;51.166;4.474;2024-01-25T06:25:54;5.10;99.90
25933;DHT22;13731;51.166;4.474;2024-01-25T06:28:19;5.20;99.90
25933;DHT22;13731;51.166;4.474;2024-01-25T06:30:45;5.20;99.90
25933;DHT22;13731;51.166;4.474;2024-01-25T06:33:11;5.30;99.90
25933;DHT22;13731;51.166;4.474;2024-01-25T06:35:37;5.40;99.90
25933;DHT22;13731;51.166;4.474;2024-01-25T06:38:02;5.60;99.90
25933;DHT22;13731;51.166;4.474;2024-01-25T06:40:28;5.70;99.90
25933;DHT22;13731;51.166;4.474;2024-01-25T06:42:54;5.70;99.90
25933;DHT22;13731;51.166;4.474;2024-01-25T06:45:20;5.60;99.90
25933;DHT22;13731;51.166;4.474;2024-01-25T06:47:45;5.60;99.90
25933;DHT22;13731;51.166;4.474;2024-01-25T06:50:12;5.50;99.90
25933;DHT22;13731;51.166;4.474;2024-01-25T06:52:37;5.50;99.90
25933;DHT22;13731;51.166;4.474;2024-01-25T06:55:03;5.50;99.90
25933;DHT22;13731;51.166;4.474;2024-01-25T06:57:29;5.60;99.90
25933;DHT22;13731;51.166;4.474;2024-01-25T06:59:54;5.60;99.90
25933;DHT22;13731;51.166;4.474;2024-01-25T07:02:20;5.70;99.90
25933;DHT22;13731;51.166;4.474;2024-01-25T07:04:46;5.80;99.90
25933;DHT22;13731;51.166;4.474;2024-01-25T07:07:12;5.70;99.90
25933;DHT22;13731;51.166;4.474;2024-01-25T07:09:38;5.70;99.90
25933;DHT22;13731;51.166;4.474;2024-01-25T07:12:06;5.80;99.90
25933;DHT22;13731;51.166;4.474;2024-01-25T07:14:32;5.80;99.90
25933;DHT22;13731;51.166;4.474;2024-01-25T07:16:57;5.70;99.90
25933;DHT22;13731;51.166;4.474;2024-01-25T07:19:23;5.70;99.90
25933;DHT22;13731;51.166;4.474;2024-01-25T07:21:49;5.80;99.90
25933;DHT22;13731;51.166;4.474;2024-01-25T07:24:15;5.80;99.90
25933;DHT22;13731;51.166;4.474;2024-01-25T07:26:41;5.80;99.90
25933;DHT22;13731;51.166;4.474;2024-01-25T07:29:06;5.80;99.90
25933;DHT22;13731;51.166;4.474;2024-01-25T07:31:32;5.90;99.90
25933;DHT22;13731;51.166;4.474;2024-01-25T07:33:58;5.90;99.90
25933;DHT22;13731;51.166;4.474;2024-01-25T07:36:24;5.70;99.90
25933;DHT22;13731;51.166;4.474;2024-01-25T07:38:49;5.60;99.90
25933;DHT22;13731;51.166;4.474;2024-01-25T07:41:15;5.60;99.90
25933;DHT22;13731;51.166;4.474;2024-01-25T07:43:41;5.50;99.90
25933;DHT22;13731;51.166;4.474;2024-01-25T07:46:07;5.50;99.90
25933;DHT22;13731;51.166;4.474;2024-01-25T07:48:34;5.60;99.90
25933;DHT22;13731;51.166;4.474;2024-01-25T07:51:00;5.50;99.90
25933;DHT22;13731;51.166;4.474;2024-01-25T07:53:27;5.60;99.90
25933;DHT22;13731;51.166;4.474;2024-01-25T07:55:52;5.60;99.90
25933;DHT22;13731;51.166;4.474;2024-01-25T07:58:18;5.60;99.90
25933;DHT22;13731;51.166;4.474;2024-01-25T08:00:44;5.60;99.90
25933;DHT22;13731;51.166;4.474;2024-01-25T08:03:11;5.60;99.90
25933;DHT22;13731;51.166;4.474;2024-01-25T08:05:36;5.70;99.90
25933;DHT22;13731;51.166;4.474;2024-01-25T08:08:02;5.70;99.90
25933;DHT22;13731;51.166;4.474;2024-01-25T08:10:28;5.70;99.90
25933;DHT22;13731;51.166;4.474;2024-01-25T08:12:54;5.80;99.90
25933;DHT22;13731;51.166;4.474;2024-01-25T08:15:20;5.80;99.90
25933;DHT22;13731;51.166;4.474;2024-01-25T08:17:46;5.80;99.90
25933;DHT22;13731;51.166;4.474;2024-01-25T08:20:12;5.90;99.90
25933;DHT22;13731;51.166;4.474;2024-01-25T08:22:40;5.90;99.90
25933;DHT22;13731;51.166;4.474;2024-01-25T08:25:06;5.90;99.90
25933;DHT22;13731;51.166;4.474;2024-01-25T08:27:33;6.00;99.90
25933;DHT22;13731;51.166;4.474;2024-01-25T08:29:58;6.10;99.90
25933;DHT22;13731;51.166;4.474;2024-01-25T08:32:25;6.20;99.90
25933;DHT22;13731;51.166;4.474;2024-01-25T08:34:50;6.30;99.90
25933;DHT22;13731;51.166;4.474;2024-01-25T08:37:16;6.40;99.90
25933;DHT22;13731;51.166;4.474;2024-01-25T08:39:42;6.40;99.90
25933;DHT22;13731;51.166;4.474;2024-01-25T08:42:08;6.50;99.90
25933;DHT22;13731;51.166;4.474;2024-01-25T08:44:34;6.60;99.90
25933;DHT22;13731;51.166;4.474;2024-01-25T08:47:00;6.60;99.90
25933;DHT22;13731;51.166;4.474;2024-01-25T08:49:26;6.60;99.90
25933;DHT22;13731;51.166;4.474;2024-01-25T08:51:51;6.80;99.90
25933;DHT22;13731;51.166;4.474;2024-01-25T08:54:17;6.80;99.90
25933;DHT22;13731;51.166;4.474;2024-01-25T08:56:43;6.90;99.90
25933;DHT22;13731;51.166;4.474;2024-01-25T08:59:09;6.90;99.90
25933;DHT22;13731;51.166;4.474;2024-01-25T09:01:35;6.90;99.90
25933;DHT22;13731;51.166;4.474;2024-01-25T09:04:01;6.80;99.90
25933;DHT22;13731;51.166;4.474;2024-01-25T09:06:28;6.80;99.90
25933;DHT22;13731;51.166;4.474;2024-01-25T09:08:54;6.80;99.90
25933;DHT22;13731;51.166;4.474;2024-01-25T09:11:20;6.80;99.90
25933;DHT22;13731;51.166;4.474;2024-01-25T09:13:46;7.00;99.90
25933;DHT22;13731;51.166;4.474;2024-01-25T09:16:13;7.10;99.90
25933;DHT22;13731;51.166;4.474;2024-01-25T09:18:39;7.20;99.90
25933;DHT22;13731;51.166;4.474;2024-01-25T09:21:04;7.30;99.90
25933;DHT22;13731;51.166;4.474;2024-01-25T09:23:30;7.20;99.90
25933;DHT22;13731;51.166;4.474;2024-01-25T09:25:56;7.30;99.90
25933;DHT22;13731;51.166;4.474;2024-01-25T09:28:22;7.30;99.90
25933;DHT22;13731;51.166;4.474;2024-01-25T09:30:48;7.20;99.90
25933;DHT22;13731;51.166;4.474;2024-01-25T09:33:14;7.10;99.90
25933;DHT22;13731;51.166;4.474;2024-01-25T09:35:40;7.10;99.90
25933;DHT22;13731;51.166;4.474;2024-01-25T09:38:06;7.10;99.90
25933;DHT22;13731;51.166;4.474;2024-01-25T09:40:32;7.10;99.90
25933;DHT22;13731;51.166;4.474;2024-01-25T09:43:00;7.30;99.90
25933;DHT22;13731;51.166;4.474;2024-01-25T09:45:25;7.30;99.90
25933;DHT22;13731;51.166;4.474;2024-01-25T09:47:51;7.20;99.90
25933;DHT22;13731;51.166;4.474;2024-01-25T09:50:17;7.20;99.90
25933;DHT22;13731;51.166;4.474;2024-01-25T09:52:43;7.10;99.90
25933;DHT22;13731;51.166;4.474;2024-01-25T09:55:11;7.30;99.90
25933;DHT22;13731;51.166;4.474;2024-01-25T09:57:45;7.10;99.90
25933;DHT22;13731;51.166;4.474;2024-01-25T10:00:12;7.00;99.90
25933;DHT22;13731;51.166;4.474;2024-01-25T10:02:38;6.70;99.90
25933;DHT22;13731;51.166;4.474;2024-01-25T10:05:04;6.70;99.90
25933;DHT22;13731;51.166;4.474;2024-01-25T10:07:39;6.70;99.90
25933;DHT22;13731;51.166;4.474;2024-01-25T10:10:05;6.70;99.90
25933;DHT22;13731;51.166;4.474;2024-01-25T10:12:32;6.80;99.90
25933;DHT22;13731;51.166;4.474;2024-01-25T10:14:58;6.80;99.90
25933;DHT22;13731;51.166;4.474;2024-01-25T10:17:24;6.90;99.90
25933;DHT22;13731;51.166;4.474;2024-01-25T10:19:49;6.90;99.90
25933;DHT22;13731;51.166;4.474;2024-01-25T10:22:15;7.00;99.90
25933;DHT22;13731;51.166;4.474;2024-01-25T10:24:41;7.00;99.90
25933;DHT22;13731;51.166;4.474;2024-01-25T10:27:07;7.00;99.90
25933;DHT22;13731;51.166;4.474;2024-01-25T10:29:37;6.90;99.90
25933;DHT22;13731;51.166;4.474;2024-01-25T10:32:04;6.90;99.90
25933;DHT22;13731;51.166;4.474;2024-01-25T10:34:33;6.90;99.90
25933;DHT22;13731;51.166;4.474;2024-01-25T10:37:01;7.00;99.90
25933;DHT22;13731;51.166;4.474;2024-01-25T10:39:27;7.10;99.90
25933;DHT22;13731;51.166;4.474;2024-01-25T10:41:53;7.20;99.90
25933;DHT22;13731;51.166;4.474;2024-01-25T10:44:19;7.20;99.90
25933;DHT22;13731;51.166;4.474;2024-01-25T10:46:48;7.50;99.90
25933;DHT22;13731;51.166;4.474;2024-01-25T10:49:14;7.60;99.90
25933;DHT22;13731;51.166;4.474;2024-01-25T10:51:40;7.60;99.90
25933;DHT22;13731;51.166;4.474;2024-01-25T10:54:07;7.60;99.90
25933;DHT22;13731;51.166;4.474;2024-01-25T10:56:37;7.70;99.90
25933;DHT22;13731;51.166;4.474;2024-01-25T10:59:03;7.70;99.90
25933;DHT22;13731;51.166;4.474;2024-01-25T11:01:29;7.70;99.90
25933;DHT22;13731;51.166;4.474;2024-01-25T11:03:55;7.80;99.90
25933;DHT22;13731;51.166;4.474;2024-01-25T11:06:21;7.90;99.90
25933;DHT22;13731;51.166;4.474;2024-01-25T11:08:50;7.90;99.90
25933;DHT22;13731;51.166;4.474;2024-01-25T11:11:16;8.00;99.90
25933;DHT22;13731;51.166;4.474;2024-01-25T11:13:44;8.10;99.90
25933;DHT22;13731;51.166;4.474;2024-01-25T11:16:16;8.10;99.90
25933;DHT22;13731;51.166;4.474;2024-01-25T11:18:52;8.10;99.90
25933;DHT22;13731;51.166;4.474;2024-01-25T11:21:29;8.10;99.90
25933;DHT22;13731;51.166;4.474;2024-01-25T11:24:02;8.10;99.90
25933;DHT22;13731;51.166;4.474;2024-01-25T11:26:28;8.10;99.90
25933;DHT22;13731;51.166;4.474;2024-01-25T11:28:54;8.00;99.90
25933;DHT22;13731;51.166;4.474;2024-01-25T11:31:21;8.00;99.90
25933;DHT22;13731;51.166;4.474;2024-01-25T11:33:47;8.10;99.90
25933;DHT22;13731;51.166;4.474;2024-01-25T11:36:15;8.10;99.90
25933;DHT22;13731;51.166;4.474;2024-01-25T11:38:40;8.20;99.90
25933;DHT22;13731;51.166;4.474;2024-01-25T11:41:06;8.10;99.90
25933;DHT22;13731;51.166;4.474;2024-01-25T11:43:32;8.30;99.90
25933;DHT22;13731;51.166;4.474;2024-01-25T11:45:58;8.30;99.90
25933;DHT22;13731;51.166;4.474;2024-01-25T11:48:26;8.40;99.90
25933;DHT22;13731;51.166;4.474;2024-01-25T11:50:55;8.30;99.90
25933;DHT22;13731;51.166;4.474;2024-01-25T11:53:21;8.40;99.90
25933;DHT22;13731;51.166;4.474;2024-01-25T11:55:47;8.60;99.90
25933;DHT22;13731;51.166;4.474;2024-01-25T11:58:12;8.80;99.90
25933;DHT22;13731;51.166;4.474;2024-01-25T12:00:38;8.90;99.90
25933;DHT22;13731;51.166;4.474;2024-01-25T12:03:04;9.00;99.90
25933;DHT22;13731;51.166;4.474;2024-01-25T12:05:30;9.00;99.90
25933;DHT22;13731;51.166;4.474;2024-01-25T12:07:55;8.90;99.90
25933;DHT22;13731;51.166;4.474;2024-01-25T12:10:21;8.80;99.90
25933;DHT22;13731;51.166;4.474;2024-01-25T12:12:48;8.70;99.90
25933;DHT22;13731;51.166;4.474;2024-01-25T12:15:14;8.80;99.90
25933;DHT22;13731;51.166;4.474;2024-01-25T12:17:40;8.90;99.90
25933;DHT22;13731;51.166;4.474;2024-01-25T12:20:06;9.00;99.90
25933;DHT22;13731;51.166;4.474;2024-01-25T12:22:38;9.10;99.90
25933;DHT22;13731;51.166;4.474;2024-01-25T12:25:08;9.10;99.90
25933;DHT22;13731;51.166;4.474;2024-01-25T12:27:35;9.20;99.90
25933;DHT22;13731;51.166;4.474;2024-01-25T12:30:02;9.20;99.90
25933;DHT22;13731;51.166;4.474;2024-01-25T12:32:29;9.20;99.90
25933;DHT22;13731;51.166;4.474;2024-01-25T12:34:59;9.20;99.90
25933;DHT22;13731;51.166;4.474;2024-01-25T12:37:27;9.30;99.90
25933;DHT22;13731;51.166;4.474;2024-01-25T12:39:53;9.40;99.90
25933;DHT22;13731;51.166;4.474;2024-01-25T12:42:22;9.30;99.90
25933;DHT22;13731;51.166;4.474;2024-01-25T12:44:50;9.40;99.90
25933;DHT22;13731;51.166;4.474;2024-01-25T12:47:16;9.50;99.90
25933;DHT22;13731;51.166;4.474;2024-01-25T12:49:43;9.60;99.90
25933;DHT22;13731;51.166;4.474;2024-01-25T12:52:09;9.60;99.90
25933;DHT22;13731;51.166;4.474;2024-01-25T12:54:35;9.70;99.90
25933;DHT22;13731;51.166;4.474;2024-01-25T12:57:01;9.70;99.90
25933;DHT22;13731;51.166;4.474;2024-01-25T12:59:27;9.60;99.90
25933;DHT22;13731;51.166;4.474;2024-01-25T13:01:53;9.60;99.90
25933;DHT22;13731;51.166;4.474;2024-01-25T13:04:18;9.60;99.90
25933;DHT22;13731;51.166;4.474;2024-01-25T13:06:46;9.60;99.90
25933;DHT22;13731;51.166;4.474;2024-01-25T13:09:12;9.60;99.90
25933;DHT22;13731;51.166;4.474;2024-01-25T13:11:38;9.70;99.90
25933;DHT22;13731;51.166;4.474;2024-01-25T13:14:04;9.70;99.90
25933;DHT22;13731;51.166;4.474;2024-01-25T13:16:30;9.60;99.90
25933;DHT22;13731;51.166;4.474;2024-01-25T13:18:55;9.60;99.90
25933;DHT22;13731;51.166;4.474;2024-01-25T13:21:21;9.60;99.90
25933;DHT22;13731;51.166;4.474;2024-01-25T13:23:47;9.60;99.90
25933;DHT22;13731;51.166;4.474;2024-01-25T13:26:13;9.50;99.90
25933;DHT22;13731;51.166;4.474;2024-01-25T13:28:38;9.50;99.90
25933;DHT22;13731;51.166;4.474;2024-01-25T13:31:04;9.50;99.90
25933;DHT22;13731;51.166;4.474;2024-01-25T13:33:30;9.50;99.90
25933;DHT22;13731;51.166;4.474;2024-01-25T13:35:55;9.60;99.90
25933;DHT22;13731;51.166;4.474;2024-01-25T13:38:21;9.80;99.90
25933;DHT22;13731;51.166;4.474;2024-01-25T13:40:48;9.80;99.90
25933;DHT22;13731;51.166;4.474;2024-01-25T13:43:14;9.80;99.90
25933;DHT22;13731;51.166;4.474;2024-01-25T13:45:40;9.80;99.90
25933;DHT22;13731;51.166;4.474;2024-01-25T13:48:06;9.70;99.90
25933;DHT22;13731;51.166;4.474;2024-01-25T13:50:32;9.60;99.90
25933;DHT22;13731;51.166;4.474;2024-01-25T13:52:58;9.60;99.90
25933;DHT22;13731;51.166;4.474;2024-01-25T13:55:24;9.60;99.90
25933;DHT22;13731;51.166;4.474;2024-01-25T13:57:49;9.60;99.90
25933;DHT22;13731;51.166;4.474;2024-01-25T14:00:15;9.70;99.90
25933;DHT22;13731;51.166;4.474;2024-01-25T14:02:41;9.70;99.90
25933;DHT22;13731;51.166;4.474;2024-01-25T14:05:11;9.60;99.90
25933;DHT22;13731;51.166;4.474;2024-01-25T14:07:37;9.60;99.90
25933;DHT22;13731;51.166;4.474;2024-01-25T14:10:03;9.60;99.90
25933;DHT22;13731;51.166;4.474;2024-01-25T14:12:28;9.70;99.90
25933;DHT22;13731;51.166;4.474;2024-01-25T14:14:54;9.60;99.90
25933;DHT22;13731;51.166;4.474;2024-01-25T14:17:20;9.70;99.90
25933;DHT22;13731;51.166;4.474;2024-01-25T14:19:47;9.70;99.90
25933;DHT22;13731;51.166;4.474;2024-01-25T14:22:13;9.80;99.90
25933;DHT22;13731;51.166;4.474;2024-01-25T14:24:39;9.80;99.90
25933;DHT22;13731;51.166;4.474;2024-01-25T14:27:04;9.70;99.90
25933;DHT22;13731;51.166;4.474;2024-01-25T14:29:31;9.70;99.90
25933;DHT22;13731;51.166;4.474;2024-01-25T14:31:59;9.80;99.90
25933;DHT22;13731;51.166;4.474;2024-01-25T14:34:25;9.80;99.90
25933;DHT22;13731;51.166;4.474;2024-01-25T14:36:51;9.90;99.90
25933;DHT22;13731;51.166;4.474;2024-01-25T14:39:17;9.90;99.90
25933;DHT22;13731;51.166;4.474;2024-01-25T14:41:43;10.10;99.90
25933;DHT22;13731;51.166;4.474;2024-01-25T14:44:09;10.00;99.90
25933;DHT22;13731;51.166;4.474;2024-01-25T14:46:35;10.00;99.90
25933;DHT22;13731;51.166;4.474;2024-01-25T14:49:01;10.00;99.90
25933;DHT22;13731;51.166;4.474;2024-01-25T14:51:27;10.00;99.90
25933;DHT22;13731;51.166;4.474;2024-01-25T14:53:53;10.00;99.90
25933;DHT22;13731;51.166;4.474;2024-01-25T14:56:19;10.00;99.90
25933;DHT22;13731;51.166;4.474;2024-01-25T14:58:44;10.00;99.90
25933;DHT22;13731;51.166;4.474;2024-01-25T15:01:14;10.10;99.90
25933;DHT22;13731;51.166;4.474;2024-01-25T15:03:40;10.20;99.90
25933;DHT22;13731;51.166;4.474;2024-01-25T15:06:06;10.30;99.90
25933;DHT22;13731;51.166;4.474;2024-01-25T15:08:32;10.30;99.90
25933;DHT22;13731;51.166;4.474;2024-01-25T15:10:58;10.30;99.90
25933;DHT22;13731;51.166;4.474;2024-01-25T15:13:25;10.30;99.90
25933;DHT22;13731;51.166;4.474;2024-01-25T15:15:51;10.30;99.90
25933;DHT22;13731;51.166;4.474;2024-01-25T15:18:16;10.10;99.90
25933;DHT22;13731;51.166;4.474;2024-01-25T15:20:43;10.10;99.90
25933;DHT22;13731;51.166;4.474;2024-01-25T15:23:09;10.10;99.90
25933;DHT22;13731;51.166;4.474;2024-01-25T15:25:35;10.20;99.90
25933;DHT22;13731;51.166;4.474;2024-01-25T15:28:01;10.30;99.90
25933;DHT22;13731;51.166;4.474;2024-01-25T15:30:26;10.40;99.90
25933;DHT22;13731;51.166;4.474;2024-01-25T15:32:52;10.50;99.90
25933;DHT22;13731;51.166;4.474;2024-01-25T15:35:18;10.50;99.90
25933;DHT22;13731;51.166;4.474;2024-01-25T15:37:44;10.60;99.90
25933;DHT22;13731;51.166;4.474;2024-01-25T15:40:10;10.50;99.90